sensor_id;sensor_type;location;lat;lon;timestamp;pressure;altitude;pressure_sealevel;temperature;humidity
9822;BME280;4950;46.042;14.472;2023-02-10T00:02:18;99951.09;;;-2.43;68.32
9822;BME280;4950;46.042;14.472;2023-02-10T00:04:45;99946.81;;;-2.41;67.78
9822;BME280;4950;46.042;14.472;2023-02-10T00:07:11;99952.75;;;-2.40;67.63
9822;BME280;4950;46.042;14.472;2023-02-10T00:09:38;99940.94;;;-2.43;68.30
9822;BME280;4950;46.042;14.472;2023-02-10T00:12:05;99931.75;;;-2.48;68.23
9822;BME280;4950;46.042;14.472;2023-02-10T00:14:33;99935.34;;;-2.55;68.91
9822;BME280;4950;46.042;14.472;2023-02-10T00:17:00;99928.69;;;-2.60;68.26
9822;BME280;4950;46.042;14.472;2023-02-10T00:19:29;99926.22;;;-2.63;68.44
9822;BME280;4950;46.042;14.472;2023-02-10T00:21:58;99929.25;;;-2.83;69.48
9822;BME280;4950;46.042;14.472;2023-02-10T00:24:26;99923.41;;;-2.86;69.61
9822;BME280;4950;46.042;14.472;2023-02-10T00:26:53;99932.69;;;-2.85;69.77
9822;BME280;4950;46.042;14.472;2023-02-10T00:29:20;99928.41;;;-2.83;69.39
9822;BME280;4950;46.042;14.472;2023-02-10T00:31:47;99931.69;;;-2.78;69.40
9822;BME280;4950;46.042;14.472;2023-02-10T00:34:15;99932.41;;;-2.73;68.89
9822;BME280;4950;46.042;14.472;2023-02-10T00:36:44;99928.31;;;-2.79;68.96
9822;BME280;4950;46.042;14.472;2023-02-10T00:39:12;99928.22;;;-2.75;69.57
9822;BME280;4950;46.042;14.472;2023-02-10T00:41:39;99931.81;;;-2.83;69.11
9822;BME280;4950;46.042;14.472;2023-02-10T00:44:06;99930.56;;;-3.01;70.34
9822;BME280;4950;46.042;14.472;2023-02-10T00:46:33;99933.41;;;-3.14;70.53
9822;BME280;4950;46.042;14.472;2023-02-10T00:49:00;99929.94;;;-3.10;70.45
9822;BME280;4950;46.042;14.472;2023-02-10T00:51:26;99925.38;;;-3.32;70.14
9822;BME280;4950;46.042;14.472;2023-02-10T00:53:55;99922.06;;;-3.35;70.62
9822;BME280;4950;46.042;14.472;2023-02-10T00:56:21;99927.00;;;-3.29;70.74
9822;BME280;4950;46.042;14.472;2023-02-10T00:58:48;99930.25;;;-3.24;70.60
9822;BME280;4950;46.042;14.472;2023-02-10T01:01:15;99927.81;;;-3.27;69.88
9822;BME280;4950;46.042;14.472;2023-02-10T01:03:41;99931.09;;;-3.24;70.16
9822;BME280;4950;46.042;14.472;2023-02-10T01:06:09;99930.22;;;-3.23;69.57
9822;BME280;4950;46.042;14.472;2023-02-10T01:08:37;99936.09;;;-3.21;70.04
9822;BME280;4950;46.042;14.472;2023-02-10T01:11:06;99926.03;;;-3.24;70.29
9822;BME280;4950;46.042;14.472;2023-02-10T01:13:35;99934.47;;;-3.23;70.43
9822;BME280;4950;46.042;14.472;2023-02-10T01:16:04;99925.22;;;-3.26;70.29
9822;BME280;4950;46.042;14.472;2023-02-10T01:18:34;99921.94;;;-3.29;70.14
9822;BME280;4950;46.042;14.472;2023-02-10T01:21:06;99929.41;;;-3.23;70.34
9822;BME280;4950;46.042;14.472;2023-02-10T01:23:33;99926.88;;;-3.25;70.74
9822;BME280;4950;46.042;14.472;2023-02-10T01:26:00;99928.56;;;-3.24;70.01
9822;BME280;4950;46.042;14.472;2023-02-10T01:28:28;99923.56;;;-3.28;70.28
9822;BME280;4950;46.042;14.472;2023-02-10T01:30:55;99923.56;;;-3.28;70.74
9822;BME280;4950;46.042;14.472;2023-02-10T01:33:21;99920.22;;;-3.29;69.89
9822;BME280;4950;46.042;14.472;2023-02-10T01:35:48;99911.94;;;-3.37;68.93
9822;BME280;4950;46.042;14.472;2023-02-10T01:38:15;99911.31;;;-3.47;69.58
9822;BME280;4950;46.042;14.472;2023-02-10T01:40:41;99908.97;;;-3.54;70.49
9822;BME280;4950;46.042;14.472;2023-02-10T01:43:13;99910.91;;;-3.66;71.04
9822;BME280;4950;46.042;14.472;2023-02-10T01:45:41;99909.25;;;-3.67;71.15
9822;BME280;4950;46.042;14.472;2023-02-10T01:48:09;99915.88;;;-3.61;71.31
9822;BME280;4950;46.042;14.472;2023-02-10T01:50:38;99920.22;;;-3.66;71.54
9822;BME280;4950;46.042;14.472;2023-02-10T01:53:06;99912.59;;;-3.66;71.88
9822;BME280;4950;46.042;14.472;2023-02-10T01:55:35;99908.31;;;-3.63;71.27
9822;BME280;4950;46.042;14.472;2023-02-10T01:58:05;99909.19;;;-3.65;71.36
9822;BME280;4950;46.042;14.472;2023-02-10T02:00:33;99910.09;;;-3.68;71.51
9822;BME280;4950;46.042;14.472;2023-02-10T02:03:02;99914.41;;;-3.71;71.56
9822;BME280;4950;46.042;14.472;2023-02-10T02:05:31;99906.72;;;-3.67;71.30
9822;BME280;4950;46.042;14.472;2023-02-10T02:08:02;99904.16;;;-3.67;71.36
9822;BME280;4950;46.042;14.472;2023-02-10T02:10:48;99903.25;;;-3.64;71.67
9822;BME280;4950;46.042;14.472;2023-02-10T02:13:23;99894.81;;;-3.65;71.04
9822;BME280;4950;46.042;14.472;2023-02-10T02:15:58;99894.09;;;-3.71;70.88
9822;BME280;4950;46.042;14.472;2023-02-10T02:18:35;99893.78;;;-3.97;72.01
9822;BME280;4950;46.042;14.472;2023-02-10T02:24:29;99897.22;;;-3.98;72.81
9822;BME280;4950;46.042;14.472;2023-02-10T02:27:19;99898.94;;;-3.98;72.94
9822;BME280;4950;46.042;14.472;2023-02-10T02:30:06;99899.63;;;-3.91;72.82
9822;BME280;4950;46.042;14.472;2023-02-10T02:32:39;99899.63;;;-3.91;72.24
9822;BME280;4950;46.042;14.472;2023-02-10T02:35:12;99904.75;;;-3.94;72.08
9822;BME280;4950;46.042;14.472;2023-02-10T02:37:43;99899.63;;;-3.91;71.96
9822;BME280;4950;46.042;14.472;2023-02-10T02:40:12;99900.38;;;-3.88;72.07
9822;BME280;4950;46.042;14.472;2023-02-10T02:42:39;99901.31;;;-3.90;71.87
9822;BME280;4950;46.042;14.472;2023-02-10T02:45:08;99890.44;;;-3.97;72.12
9822;BME280;4950;46.042;14.472;2023-02-10T02:48:02;99897.31;;;-4.02;72.49
9822;BME280;4950;46.042;14.472;2023-02-10T02:50:34;99890.47;;;-3.99;72.22
9822;BME280;4950;46.042;14.472;2023-02-10T02:53:09;99887.19;;;-4.02;71.68
9822;BME280;4950;46.042;14.472;2023-02-10T02:55:46;99888.06;;;-4.05;72.36
9822;BME280;4950;46.042;14.472;2023-02-10T02:58:18;99895.63;;;-4.03;72.21
9822;BME280;4950;46.042;14.472;2023-02-10T03:00:48;99903.22;;;-4.02;71.99
9822;BME280;4950;46.042;14.472;2023-02-10T03:03:18;99902.34;;;-4.01;72.21
9822;BME280;4950;46.042;14.472;2023-02-10T03:05:45;99893.88;;;-4.00;72.05
9822;BME280;4950;46.042;14.472;2023-02-10T03:08:12;99896.47;;;-4.03;72.18
9822;BME280;4950;46.042;14.472;2023-02-10T03:10:39;99904.03;;;-4.00;72.18
9822;BME280;4950;46.042;14.472;2023-02-10T03:13:05;99904.84;;;-3.99;71.84
9822;BME280;4950;46.042;14.472;2023-02-10T03:15:32;99909.91;;;-3.98;71.94
9822;BME280;4950;46.042;14.472;2023-02-10T03:17:58;99905.69;;;-3.99;71.84
9822;BME280;4950;46.042;14.472;2023-02-10T03:20:27;99908.22;;;-3.99;71.88
9822;BME280;4950;46.042;14.472;2023-02-10T03:22:53;99910.75;;;-3.99;71.65
9822;BME280;4950;46.042;14.472;2023-02-10T03:25:20;99909.00;;;-3.97;71.36
9822;BME280;4950;46.042;14.472;2023-02-10T03:27:47;99909.00;;;-3.97;71.07
9822;BME280;4950;46.042;14.472;2023-02-10T03:30:13;99906.56;;;-4.00;71.19
9822;BME280;4950;46.042;14.472;2023-02-10T03:32:40;99909.91;;;-3.99;71.30
9822;BME280;4950;46.042;14.472;2023-02-10T03:35:07;99905.72;;;-4.00;71.09
9822;BME280;4950;46.042;14.472;2023-02-10T03:37:35;99910.06;;;-4.07;71.23
9822;BME280;4950;46.042;14.472;2023-02-10T03:40:02;99909.28;;;-4.09;71.40
9822;BME280;4950;46.042;14.472;2023-02-10T03:42:29;99905.13;;;-4.13;71.36
9822;BME280;4950;46.042;14.472;2023-02-10T03:44:55;99918.75;;;-4.17;71.54
9822;BME280;4950;46.042;14.472;2023-02-10T03:47:22;99924.63;;;-4.17;71.55
9822;BME280;4950;46.042;14.472;2023-02-10T03:49:49;99930.47;;;-4.11;71.64
9822;BME280;4950;46.042;14.472;2023-02-10T03:52:16;99931.53;;;-4.22;72.03
9822;BME280;4950;46.042;14.472;2023-02-10T03:54:44;99939.97;;;-4.23;71.75
9822;BME280;4950;46.042;14.472;2023-02-10T03:57:11;99933.13;;;-4.18;71.66
9822;BME280;4950;46.042;14.472;2023-02-10T03:59:38;99938.56;;;-4.38;72.26
9822;BME280;4950;46.042;14.472;2023-02-10T04:02:04;99938.78;;;-4.48;72.79
9822;BME280;4950;46.042;14.472;2023-02-10T04:04:32;99948.00;;;-4.44;72.86
9822;BME280;4950;46.042;14.472;2023-02-10T04:06:58;99937.84;;;-4.43;72.71
9822;BME280;4950;46.042;14.472;2023-02-10T04:09:25;99936.25;;;-4.48;72.70
9822;BME280;4950;46.042;14.472;2023-02-10T04:11:54;99943.72;;;-4.41;72.50
9822;BME280;4950;46.042;14.472;2023-02-10T04:14:21;99938.63;;;-4.39;72.24
9822;BME280;4950;46.042;14.472;2023-02-10T04:16:48;99937.75;;;-4.40;72.47
9822;BME280;4950;46.042;14.472;2023-02-10T04:19:14;99941.28;;;-4.47;71.72
9822;BME280;4950;46.042;14.472;2023-02-10T04:21:41;99937.16;;;-4.51;72.43
9822;BME280;4950;46.042;14.472;2023-02-10T04:24:08;99944.75;;;-4.51;72.63
9822;BME280;4950;46.042;14.472;2023-02-10T04:26:34;99948.16;;;-4.55;72.97
9822;BME280;4950;46.042;14.472;2023-02-10T04:29:02;99952.41;;;-4.56;72.68
9822;BME280;4950;46.042;14.472;2023-02-10T04:31:29;99944.66;;;-4.48;72.65
9822;BME280;4950;46.042;14.472;2023-02-10T04:33:56;99945.47;;;-4.46;72.66
9822;BME280;4950;46.042;14.472;2023-02-10T04:36:23;99943.75;;;-4.44;71.89
9822;BME280;4950;46.042;14.472;2023-02-10T04:38:49;99947.34;;;-4.56;72.53
9822;BME280;4950;46.042;14.472;2023-02-10T04:41:16;99943.97;;;-4.54;72.40
9822;BME280;4950;46.042;14.472;2023-02-10T04:43:43;99937.44;;;-4.68;72.40
9822;BME280;4950;46.042;14.472;2023-02-10T04:46:11;99940.22;;;-4.83;73.28
9822;BME280;4950;46.042;14.472;2023-02-10T04:48:37;99945.28;;;-4.83;73.10
9822;BME280;4950;46.042;14.472;2023-02-10T04:51:08;99946.09;;;-4.80;73.72
9822;BME280;4950;46.042;14.472;2023-02-10T04:53:35;99950.22;;;-4.74;72.88
9822;BME280;4950;46.042;14.472;2023-02-10T04:56:02;99952.75;;;-4.76;73.08
9822;BME280;4950;46.042;14.472;2023-02-10T04:58:30;99956.16;;;-4.77;72.63
9822;BME280;4950;46.042;14.472;2023-02-10T05:00:56;99954.56;;;-4.82;73.04
9822;BME280;4950;46.042;14.472;2023-02-10T05:03:25;99949.66;;;-4.91;73.77
9822;BME280;4950;46.042;14.472;2023-02-10T05:05:52;99962.19;;;-4.84;73.32
9822;BME280;4950;46.042;14.472;2023-02-10T05:08:19;99959.66;;;-4.84;73.22
9822;BME280;4950;46.042;14.472;2023-02-10T05:10:48;99957.28;;;-4.94;74.08
9822;BME280;4950;46.042;14.472;2023-02-10T05:13:15;99960.59;;;-4.89;74.60
9822;BME280;4950;46.042;14.472;2023-02-10T05:15:41;99966.34;;;-4.80;74.03
9822;BME280;4950;46.042;14.472;2023-02-10T05:18:08;99967.13;;;-4.76;73.58
9822;BME280;4950;46.042;14.472;2023-02-10T05:20:36;99975.53;;;-4.72;73.92
9822;BME280;4950;46.042;14.472;2023-02-10T05:23:04;99983.16;;;-4.76;73.27
9822;BME280;4950;46.042;14.472;2023-02-10T05:25:31;99984.88;;;-4.76;73.74
9822;BME280;4950;46.042;14.472;2023-02-10T05:27:58;99985.81;;;-4.82;73.24
9822;BME280;4950;46.042;14.472;2023-02-10T05:30:24;99990.88;;;-4.83;74.18
9822;BME280;4950;46.042;14.472;2023-02-10T05:32:51;99987.44;;;-4.79;73.90
9822;BME280;4950;46.042;14.472;2023-02-10T05:35:18;99983.28;;;-4.83;74.06
9822;BME280;4950;46.042;14.472;2023-02-10T05:37:46;99973.06;;;-4.77;73.80
9822;BME280;4950;46.042;14.472;2023-02-10T05:40:12;99971.34;;;-4.77;73.48
9822;BME280;4950;46.042;14.472;2023-02-10T05:42:39;99977.50;;;-4.90;73.45
9822;BME280;4950;46.042;14.472;2023-02-10T05:45:06;99980.16;;;-4.98;74.03
9822;BME280;4950;46.042;14.472;2023-02-10T05:47:33;99983.53;;;-4.99;74.15
9822;BME280;4950;46.042;14.472;2023-02-10T05:50:00;99989.63;;;-5.12;74.87
9822;BME280;4950;46.042;14.472;2023-02-10T05:52:26;99996.41;;;-5.12;75.32
9822;BME280;4950;46.042;14.472;2023-02-10T05:54:54;99997.13;;;-5.06;75.33
9822;BME280;4950;46.042;14.472;2023-02-10T05:57:21;100001.34;;;-5.03;74.66
9822;BME280;4950;46.042;14.472;2023-02-10T05:59:48;100003.88;;;-5.05;74.82
9822;BME280;4950;46.042;14.472;2023-02-10T06:02:15;100015.69;;;-5.04;74.71
9822;BME280;4950;46.042;14.472;2023-02-10T06:04:41;100016.56;;;-5.06;74.11
9822;BME280;4950;46.042;14.472;2023-02-10T06:07:08;100013.88;;;-4.96;73.46
9822;BME280;4950;46.042;14.472;2023-02-10T06:09:35;100019.91;;;-5.04;73.42
9822;BME280;4950;46.042;14.472;2023-02-10T06:12:03;100018.41;;;-5.18;73.52
9822;BME280;4950;46.042;14.472;2023-02-10T06:14:31;100019.31;;;-5.22;74.33
9822;BME280;4950;46.042;14.472;2023-02-10T06:16:57;100023.53;;;-5.22;74.43
9822;BME280;4950;46.042;14.472;2023-02-10T06:19:24;100023.44;;;-5.14;74.56
9822;BME280;4950;46.042;14.472;2023-02-10T06:21:51;100040.31;;;-5.13;73.82
9822;BME280;4950;46.042;14.472;2023-02-10T06:24:18;100033.81;;;-5.33;74.09
9822;BME280;4950;46.042;14.472;2023-02-10T06:26:44;100043.13;;;-5.35;73.85
9822;BME280;4950;46.042;14.472;2023-02-10T06:29:12;100038.06;;;-5.35;74.53
9822;BME280;4950;46.042;14.472;2023-02-10T06:31:39;100038.03;;;-5.33;74.21
9822;BME280;4950;46.042;14.472;2023-02-10T06:34:06;100044.78;;;-5.32;74.44
9822;BME280;4950;46.042;14.472;2023-02-10T06:36:33;100046.50;;;-5.36;74.45
9822;BME280;4950;46.042;14.472;2023-02-10T06:39:00;100046.50;;;-5.34;74.76
9822;BME280;4950;46.042;14.472;2023-02-10T06:41:27;100049.88;;;-5.36;74.77
9822;BME280;4950;46.042;14.472;2023-02-10T06:43:53;100045.53;;;-5.27;74.15
9822;BME280;4950;46.042;14.472;2023-02-10T06:46:21;100052.31;;;-5.29;74.04
9822;BME280;4950;46.042;14.472;2023-02-10T06:48:48;100053.13;;;-5.26;74.11
9822;BME280;4950;46.042;14.472;2023-02-10T06:51:15;100054.84;;;-5.29;74.08
9822;BME280;4950;46.042;14.472;2023-02-10T06:53:42;100048.06;;;-5.27;74.45
9822;BME280;4950;46.042;14.472;2023-02-10T06:56:09;100046.41;;;-5.28;74.36
9822;BME280;4950;46.042;14.472;2023-02-10T06:58:36;100056.44;;;-5.22;74.11
9822;BME280;4950;46.042;14.472;2023-02-10T07:01:06;100059.91;;;-5.29;73.90
9822;BME280;4950;46.042;14.472;2023-02-10T07:03:34;100070.84;;;-5.26;74.93
9822;BME280;4950;46.042;14.472;2023-02-10T07:06:01;100059.88;;;-5.26;75.10
9822;BME280;4950;46.042;14.472;2023-02-10T07:08:28;100071.56;;;-5.18;74.89
9822;BME280;4950;46.042;14.472;2023-02-10T07:10:54;100067.31;;;-5.16;75.16
9822;BME280;4950;46.042;14.472;2023-02-10T07:13:21;100068.00;;;-5.04;75.12
9822;BME280;4950;46.042;14.472;2023-02-10T07:15:48;100073.94;;;-5.05;75.39
9822;BME280;4950;46.042;14.472;2023-02-10T07:18:15;100077.22;;;-5.00;75.49
9822;BME280;4950;46.042;14.472;2023-02-10T07:20:43;100083.06;;;-4.93;75.19
9822;BME280;4950;46.042;14.472;2023-02-10T07:23:09;100085.50;;;-4.87;75.40
9822;BME280;4950;46.042;14.472;2023-02-10T07:25:36;100081.97;;;-4.77;75.49
9822;BME280;4950;46.042;14.472;2023-02-10T07:28:03;100082.66;;;-4.66;75.17
9822;BME280;4950;46.042;14.472;2023-02-10T07:30:33;100080.94;;;-4.64;74.72
9822;BME280;4950;46.042;14.472;2023-02-10T07:32:59;100073.19;;;-4.53;74.38
9822;BME280;4950;46.042;14.472;2023-02-10T07:35:27;100075.78;;;-4.59;74.66
9822;BME280;4950;46.042;14.472;2023-02-10T07:37:55;100085.31;;;-4.73;74.62
9822;BME280;4950;46.042;14.472;2023-02-10T07:40:22;100093.84;;;-4.81;74.98
9822;BME280;4950;46.042;14.472;2023-02-10T07:42:49;100088.72;;;-4.74;75.21
9822;BME280;4950;46.042;14.472;2023-02-10T07:45:16;100086.72;;;-4.57;75.08
9822;BME280;4950;46.042;14.472;2023-02-10T07:47:42;100092.53;;;-4.49;75.65
9822;BME280;4950;46.042;14.472;2023-02-10T07:50:09;100093.13;;;-4.34;75.04
9822;BME280;4950;46.042;14.472;2023-02-10T07:52:36;100095.44;;;-4.21;75.16
9822;BME280;4950;46.042;14.472;2023-02-10T07:55:05;100087.56;;;-4.04;75.00
9822;BME280;4950;46.042;14.472;2023-02-10T07:57:31;100095.91;;;-3.99;73.92
9822;BME280;4950;46.042;14.472;2023-02-10T07:59:58;100094.97;;;-3.94;74.11
9822;BME280;4950;46.042;14.472;2023-02-10T08:02:25;100094.91;;;-3.90;73.75
9822;BME280;4950;46.042;14.472;2023-02-10T08:04:52;100093.88;;;-3.81;73.65
9822;BME280;4950;46.042;14.472;2023-02-10T08:07:20;100093.53;;;-3.61;73.95
9822;BME280;4950;46.042;14.472;2023-02-10T08:09:49;100099.31;;;-3.54;72.75
9822;BME280;4950;46.042;14.472;2023-02-10T08:12:17;100097.59;;;-3.54;73.34
9822;BME280;4950;46.042;14.472;2023-02-10T08:14:45;100097.44;;;-3.45;73.92
9822;BME280;4950;46.042;14.472;2023-02-10T08:17:11;100103.84;;;-3.27;73.85
9822;BME280;4950;46.042;14.472;2023-02-10T08:19:38;100106.97;;;-3.14;72.91
9822;BME280;4950;46.042;14.472;2023-02-10T08:22:05;100110.06;;;-3.01;72.50
9822;BME280;4950;46.042;14.472;2023-02-10T08:24:32;100113.06;;;-2.84;71.06
9822;BME280;4950;46.042;14.472;2023-02-10T08:26:58;100109.22;;;-2.63;71.33
9822;BME280;4950;46.042;14.472;2023-02-10T08:29:26;100110.44;;;-2.42;70.56
9822;BME280;4950;46.042;14.472;2023-02-10T08:31:53;100109.13;;;-2.22;69.84
9822;BME280;4950;46.042;14.472;2023-02-10T08:34:20;100098.41;;;-2.01;68.68
9822;BME280;4950;46.042;14.472;2023-02-10T08:36:47;100101.13;;;-1.75;67.90
9822;BME280;4950;46.042;14.472;2023-02-10T08:39:14;100108.78;;;-1.44;67.97
9822;BME280;4950;46.042;14.472;2023-02-10T08:41:41;100104.72;;;-1.22;66.76
9822;BME280;4950;46.042;14.472;2023-02-10T08:44:09;100100.94;;;-1.08;65.95
9822;BME280;4950;46.042;14.472;2023-02-10T08:46:39;100099.53;;;-0.89;65.15
9822;BME280;4950;46.042;14.472;2023-02-10T08:49:06;100097.22;;;-0.68;64.01
9822;BME280;4950;46.042;14.472;2023-02-10T08:51:33;100100.84;;;-0.49;63.65
9822;BME280;4950;46.042;14.472;2023-02-10T08:54:00;100103.78;;;-0.34;62.79
9822;BME280;4950;46.042;14.472;2023-02-10T08:56:27;100099.53;;;-0.09;61.12
9822;BME280;4950;46.042;14.472;2023-02-10T08:58:54;100103.22;;;0.08;61.01
9822;BME280;4950;46.042;14.472;2023-02-10T09:01:24;100102.56;;;0.28;60.95
9822;BME280;4950;46.042;14.472;2023-02-10T09:03:54;100103.91;;;0.38;59.74
9822;BME280;4950;46.042;14.472;2023-02-10T09:06:22;100100.94;;;0.49;58.97
9822;BME280;4950;46.042;14.472;2023-02-10T09:08:50;100100.63;;;0.58;58.86
9822;BME280;4950;46.042;14.472;2023-02-10T09:11:19;100101.53;;;0.57;58.61
9822;BME280;4950;46.042;14.472;2023-02-10T09:13:47;100097.84;;;0.64;59.05
9822;BME280;4950;46.042;14.472;2023-02-10T09:16:14;100096.50;;;0.77;58.94
9822;BME280;4950;46.042;14.472;2023-02-10T09:18:40;100093.03;;;1.02;58.21
9822;BME280;4950;46.042;14.472;2023-02-10T09:21:09;100092.28;;;1.22;57.70
9822;BME280;4950;46.042;14.472;2023-02-10T09:23:36;100096.28;;;1.50;56.15
9822;BME280;4950;46.042;14.472;2023-02-10T09:26:03;100094.41;;;1.55;56.33
9822;BME280;4950;46.042;14.472;2023-02-10T09:28:30;100086.47;;;1.61;56.81
9822;BME280;4950;46.042;14.472;2023-02-10T09:30:57;100092.00;;;1.72;55.24
9822;BME280;4950;46.042;14.472;2023-02-10T09:33:23;100095.56;;;1.68;55.82
9822;BME280;4950;46.042;14.472;2023-02-10T09:35:50;100096.66;;;1.63;56.05
9822;BME280;4950;46.042;14.472;2023-02-10T09:38:18;100100.50;;;1.73;56.42
9822;BME280;4950;46.042;14.472;2023-02-10T09:40:50;100095.25;;;1.96;55.38
9822;BME280;4950;46.042;14.472;2023-02-10T09:43:34;100100.56;;;2.12;54.75
9822;BME280;4950;46.042;14.472;2023-02-10T09:46:10;100095.03;;;2.22;53.80
9822;BME280;4950;46.042;14.472;2023-02-10T09:48:53;100094.88;;;2.45;53.48
9822;BME280;4950;46.042;14.472;2023-02-10T09:51:34;100096.75;;;2.42;53.89
9822;BME280;4950;46.042;14.472;2023-02-10T09:54:07;100096.84;;;2.59;53.46
9822;BME280;4950;46.042;14.472;2023-02-10T09:56:35;100103.56;;;3.00;52.26
9822;BME280;4950;46.042;14.472;2023-02-10T09:59:02;100107.63;;;3.23;51.90
9822;BME280;4950;46.042;14.472;2023-02-10T10:01:35;100103.22;;;3.44;51.21
9822;BME280;4950;46.042;14.472;2023-02-10T10:04:05;100105.03;;;3.59;50.40
9822;BME280;4950;46.042;14.472;2023-02-10T10:06:35;100100.16;;;3.72;49.20
9822;BME280;4950;46.042;14.472;2023-02-10T10:09:18;100096.81;;;3.70;50.04
9822;BME280;4950;46.042;14.472;2023-02-10T10:11:49;100090.19;;;3.83;49.55
9822;BME280;4950;46.042;14.472;2023-02-10T10:14:18;100104.09;;;3.79;49.90
9822;BME280;4950;46.042;14.472;2023-02-10T10:16:58;100094.31;;;4.03;49.72
9822;BME280;4950;46.042;14.472;2023-02-10T10:19:35;100092.84;;;4.32;49.03
9822;BME280;4950;46.042;14.472;2023-02-10T10:22:20;100093.41;;;4.71;48.28
9822;BME280;4950;46.042;14.472;2023-02-10T10:25:07;100081.13;;;5.08;47.02
9822;BME280;4950;46.042;14.472;2023-02-10T10:27:48;100069.81;;;5.26;46.93
9822;BME280;4950;46.042;14.472;2023-02-10T10:30:25;100066.41;;;5.56;45.69
9822;BME280;4950;46.042;14.472;2023-02-10T10:32:59;100058.91;;;5.82;45.35
9822;BME280;4950;46.042;14.472;2023-02-10T10:35:30;100062.00;;;6.03;43.74
9822;BME280;4950;46.042;14.472;2023-02-10T10:38:08;100053.19;;;6.21;42.85
9822;BME280;4950;46.042;14.472;2023-02-10T10:40:41;100055.84;;;6.34;41.48
9822;BME280;4950;46.042;14.472;2023-02-10T10:43:13;100043.13;;;6.60;42.10
9822;BME280;4950;46.042;14.472;2023-02-10T10:45:47;100040.22;;;6.79;41.23
9822;BME280;4950;46.042;14.472;2023-02-10T10:48:17;100037.97;;;6.87;42.46
9822;BME280;4950;46.042;14.472;2023-02-10T10:50:44;100034.88;;;7.09;41.05
9822;BME280;4950;46.042;14.472;2023-02-10T10:53:15;100022.72;;;7.11;39.55
9822;BME280;4950;46.042;14.472;2023-02-10T10:55:46;100022.06;;;7.07;39.90
9822;BME280;4950;46.042;14.472;2023-02-10T10:58:23;100017.66;;;6.95;39.47
9822;BME280;4950;46.042;14.472;2023-02-10T11:00:53;100014.97;;;7.24;39.56
9822;BME280;4950;46.042;14.472;2023-02-10T11:03:21;100015.03;;;7.37;38.65
9822;BME280;4950;46.042;14.472;2023-02-10T11:05:58;100005.13;;;7.69;38.23
9822;BME280;4950;46.042;14.472;2023-02-10T11:08:27;100001.72;;;7.94;38.35
9822;BME280;4950;46.042;14.472;2023-02-10T11:10:58;99996.53;;;8.07;37.77
9822;BME280;4950;46.042;14.472;2023-02-10T11:13:27;99989.50;;;8.09;37.47
9822;BME280;4950;46.042;14.472;2023-02-10T11:16:01;99976.84;;;8.17;37.53
9822;BME280;4950;46.042;14.472;2023-02-10T11:18:28;99976.84;;;8.30;36.07
9822;BME280;4950;46.042;14.472;2023-02-10T11:20:59;99981.66;;;7.98;36.59
9822;BME280;4950;46.042;14.472;2023-02-10T11:23:27;99989.09;;;7.89;37.43
9822;BME280;4950;46.042;14.472;2023-02-10T11:26:01;99988.56;;;7.84;37.54
9822;BME280;4950;46.042;14.472;2023-02-10T11:28:30;99988.56;;;7.84;37.63
9822;BME280;4950;46.042;14.472;2023-02-10T11:31:00;99987.84;;;8.08;37.19
9822;BME280;4950;46.042;14.472;2023-02-10T11:33:30;99983.09;;;8.15;36.77
9822;BME280;4950;46.042;14.472;2023-02-10T11:35:58;99990.28;;;8.35;36.96
9822;BME280;4950;46.042;14.472;2023-02-10T11:38:26;99981.91;;;8.68;36.66
9822;BME280;4950;46.042;14.472;2023-02-10T11:40:55;99975.13;;;8.79;35.97
9822;BME280;4950;46.042;14.472;2023-02-10T11:43:29;99973.47;;;9.02;35.31
9822;BME280;4950;46.042;14.472;2023-02-10T11:45:58;99969.75;;;9.17;34.93
9822;BME280;4950;46.042;14.472;2023-02-10T11:48:26;99972.50;;;8.92;35.31
9822;BME280;4950;46.042;14.472;2023-02-10T11:51:01;99971.16;;;8.86;35.56
9822;BME280;4950;46.042;14.472;2023-02-10T11:53:31;99967.59;;;8.76;35.68
9822;BME280;4950;46.042;14.472;2023-02-10T11:56:02;99982.31;;;8.75;35.45
9822;BME280;4950;46.042;14.472;2023-02-10T11:58:45;99973.94;;;8.72;35.91
9822;BME280;4950;46.042;14.472;2023-02-10T12:01:50;99966.25;;;8.94;34.87
9822;BME280;4950;46.042;14.472;2023-02-10T12:04:45;99965.53;;;9.16;35.60
9822;BME280;4950;46.042;14.472;2023-02-10T12:07:22;99962.66;;;9.43;34.74
9822;BME280;4950;46.042;14.472;2023-02-10T12:09:55;99955.16;;;9.63;34.59
9822;BME280;4950;46.042;14.472;2023-02-10T12:12:31;99957.63;;;9.87;33.45
9822;BME280;4950;46.042;14.472;2023-02-10T12:15:07;99959.88;;;9.69;33.61
9822;BME280;4950;46.042;14.472;2023-02-10T12:17:48;99953.84;;;9.91;33.93
9822;BME280;4950;46.042;14.472;2023-02-10T12:20:34;99951.59;;;9.98;33.41
9822;BME280;4950;46.042;14.472;2023-02-10T12:23:35;99932.72;;;10.18;33.13
9822;BME280;4950;46.042;14.472;2023-02-10T12:26:12;99927.25;;;10.55;32.96
9822;BME280;4950;46.042;14.472;2023-02-10T12:28:53;99927.03;;;10.79;32.61
9822;BME280;4950;46.042;14.472;2023-02-10T12:31:34;99920.69;;;10.93;31.86
9822;BME280;4950;46.042;14.472;2023-02-10T12:34:17;99915.75;;;11.11;31.78
9822;BME280;4950;46.042;14.472;2023-02-10T12:36:54;99922.56;;;11.44;30.78
9822;BME280;4950;46.042;14.472;2023-02-10T12:39:26;99920.66;;;11.46;30.91
9822;BME280;4950;46.042;14.472;2023-02-10T12:42:04;99920.06;;;11.43;30.62
9822;BME280;4950;46.042;14.472;2023-02-10T12:44:46;99917.41;;;11.54;30.79
9822;BME280;4950;46.042;14.472;2023-02-10T12:47:27;99912.50;;;11.61;30.56
9822;BME280;4950;46.042;14.472;2023-02-10T12:50:16;99919.69;;;11.48;30.71
9822;BME280;4950;46.042;14.472;2023-02-10T12:52:50;99914.38;;;11.07;31.04
9822;BME280;4950;46.042;14.472;2023-02-10T12:55:23;99925.19;;;10.04;32.67
9822;BME280;4950;46.042;14.472;2023-02-10T12:57:54;99911.63;;;9.78;33.41
9822;BME280;4950;46.042;14.472;2023-02-10T13:00:28;99919.31;;;9.91;33.19
9822;BME280;4950;46.042;14.472;2023-02-10T13:03:01;99915.03;;;10.01;33.12
9822;BME280;4950;46.042;14.472;2023-02-10T13:05:33;99923.03;;;10.20;32.67
9822;BME280;4950;46.042;14.472;2023-02-10T13:08:05;99921.63;;;10.27;32.61
9822;BME280;4950;46.042;14.472;2023-02-10T13:10:39;99910.66;;;10.24;32.73
9822;BME280;4950;46.042;14.472;2023-02-10T13:13:12;99906.13;;;10.48;32.17
9822;BME280;4950;46.042;14.472;2023-02-10T13:15:43;99906.91;;;10.60;31.92
9822;BME280;4950;46.042;14.472;2023-02-10T13:18:18;99903.28;;;10.84;31.62
9822;BME280;4950;46.042;14.472;2023-02-10T13:20:51;99900.13;;;11.01;31.62
9822;BME280;4950;46.042;14.472;2023-02-10T13:23:24;99895.03;;;11.21;31.09
9822;BME280;4950;46.042;14.472;2023-02-10T13:29:02;99900.09;;;11.43;30.68
9822;BME280;4950;46.042;14.472;2023-02-10T13:34:26;99893.09;;;11.44;31.11